Time;durP1;ratioP1;P1;durP2;ratioP2;P2;SDS_P1;SDS_P2;PMS_P1;PMS_P2;Temp;Humidity;BMP_temperature;BMP_pressure;BME280_temperature;BME280_humidity;BME280_pressure;Samples;Min_cycle;Max_cycle;Signal;HPM_P1;HPM_P2
2021/12/18 00:00:26;;;;;;;20.65;11.80;;;;;;;;;;5064894;28;20067;-55
2021/12/18 00:02:53;;;;;;;19.00;11.15;;;;;;;;;;5064995;28;20024;-56
2021/12/18 00:05:19;;;;;;;19.30;11.07;;;;;;;;;;5064173;28;20542;-56
2021/12/18 00:07:45;;;;;;;19.88;12.02;;;;;;;;;;5062887;28;20032;-56
2021/12/18 00:10:11;;;;;;;17.77;11.27;;;;;;;;;;5064207;28;20095;-55
2021/12/18 00:12:37;;;;;;;20.05;11.88;;;;;;;;;;5064904;28;20028;-55
2021/12/18 00:15:03;;;;;;;16.63;10.40;;;;;;;;;;5064406;28;20414;-55
2021/12/18 00:17:29;;;;;;;17.38;10.80;;;;;;;;;;5064966;28;20024;-56
2021/12/18 00:19:55;;;;;;;17.95;11.00;;;;;;;;;;5063378;28;20035;-55
2021/12/18 00:22:21;;;;;;;17.15;10.23;;;;;;;;;;5064760;28;20062;-56
2021/12/18 00:24:47;;;;;;;16.85;11.18;;;;;;;;;;5061778;28;20032;-55
2021/12/18 00:27:13;;;;;;;16.20;10.25;;;;;;;;;;5064590;28;20504;-56
2021/12/18 00:29:40;;;;;;;15.88;10.30;;;;;;;;;;5065518;28;20036;-55
2021/12/18 00:32:06;;;;;;;16.92;10.63;;;;;;;;;;5063648;28;20087;-56
2021/12/18 00:34:32;;;;;;;15.75;10.70;;;;;;;;;;5062081;28;20020;-56
2021/12/18 00:36:59;;;;;;;17.08;11.07;;;;;;;;;;5064166;28;20032;-56
2021/12/18 00:39:29;;;;;;;15.60;10.07;;;;;;;;;;5064106;28;20072;-55
2021/12/18 00:42:20;;;;;;;15.93;10.55;;;;;;;;;;5064373;28;20511;-55
2021/12/18 00:44:46;;;;;;;15.48;9.98;;;;;;;;;;5062066;28;20433;-55
2021/12/18 00:47:12;;;;;;;15.90;9.82;;;;;;;;;;5064720;28;20052;-55
2021/12/18 00:49:39;;;;;;;14.35;9.70;;;;;;;;;;5064441;28;20048;-56
2021/12/18 00:52:06;;;;;;;16.25;10.15;;;;;;;;;;5064373;28;20055;-55
2021/12/18 00:54:34;;;;;;;16.20;10.75;;;;;;;;;;5063470;28;20434;-56
2021/12/18 00:57:00;;;;;;;14.45;9.70;;;;;;;;;;5064071;28;20028;-55
2021/12/18 00:59:26;;;;;;;16.00;10.27;;;;;;;;;;5063430;28;20032;-55
2021/12/18 01:01:52;;;;;;;14.95;10.02;;;;;;;;;;5063168;28;20099;-56
2021/12/18 01:04:18;;;;;;;15.68;10.10;;;;;;;;;;5063173;28;20032;-55
2021/12/18 01:06:45;;;;;;;18.17;11.88;;;;;;;;;;5063713;28;20024;-56
2021/12/18 01:09:11;;;;;;;17.50;11.95;;;;;;;;;;5064668;28;20085;-55
2021/12/18 01:11:45;;;;;;;18.25;11.68;;;;;;;;;;5064048;28;20017;-55
2021/12/18 01:24:48;;;;;;;15.50;9.70;;;;;;;;;;5055108;28;20036;-55
2021/12/18 01:27:15;;;;;;;15.38;9.65;;;;;;;;;;5049458;28;20393;-54
2021/12/18 01:29:41;;;;;;;15.43;10.27;;;;;;;;;;5068479;28;20024;-54
2021/12/18 01:32:08;;;;;;;16.77;10.52;;;;;;;;;;5066859;28;20522;-54
2021/12/18 01:34:34;;;;;;;17.23;10.43;;;;;;;;;;5066598;28;20040;-55
2021/12/18 01:37:01;;;;;;;18.50;11.95;;;;;;;;;;5049547;28;20033;-55
2021/12/18 01:39:27;;;;;;;16.42;10.52;;;;;;;;;;5067355;28;20115;-54
2021/12/18 01:52:42;;;;;;;18.42;11.23;;;;;;;;;;5065463;28;20536;-56
2021/12/18 01:55:08;;;;;;;17.55;10.65;;;;;;;;;;5063253;28;20401;-54
2021/12/18 01:57:34;;;;;;;17.95;11.18;;;;;;;;;;5067469;28;20029;-55
2021/12/18 02:00:00;;;;;;;17.60;10.20;;;;;;;;;;5067003;28;20359;-54
2021/12/18 02:02:27;;;;;;;16.88;11.25;;;;;;;;;;5067064;28;20488;-56
2021/12/18 02:04:53;;;;;;;17.95;10.50;;;;;;;;;;5064880;28;20063;-55
2021/12/18 02:07:20;;;;;;;17.25;11.15;;;;;;;;;;5066849;28;20028;-55
2021/12/18 02:12:23;;;;;;;17.73;10.90;;;;;;;;;;5066565;28;20032;-55
2021/12/18 02:22:48;;;;;;;18.25;11.32;;;;;;;;;;5066841;28;20032;-55
2021/12/18 02:25:16;;;;;;;18.85;11.57;;;;;;;;;;5064549;28;20423;-55
2021/12/18 02:27:42;;;;;;;17.27;10.85;;;;;;;;;;5065667;28;20060;-54
2021/12/18 02:30:10;;;;;;;18.55;11.48;;;;;;;;;;5065714;28;20021;-56
2021/12/18 02:32:36;;;;;;;17.17;10.85;;;;;;;;;;5066222;28;20116;-54
2021/12/18 02:35:05;;;;;;;18.85;11.70;;;;;;;;;;5064347;28;20071;-55
2021/12/18 02:37:38;;;;;;;17.05;10.80;;;;;;;;;;5065715;28;20044;-54
2021/12/18 02:42:34;;;;;;;17.17;10.75;;;;;;;;;;5064382;28;20090;-55
2021/12/18 02:45:02;;;;;;;18.40;11.40;;;;;;;;;;5066795;28;20563;-54
2021/12/18 02:47:29;;;;;;;20.20;12.10;;;;;;;;;;5066630;28;20032;-55
2021/12/18 02:49:56;;;;;;;17.88;11.32;;;;;;;;;;5066821;28;20032;-55
2021/12/18 02:52:27;;;;;;;17.15;10.98;;;;;;;;;;5064843;28;20084;-55
2021/12/18 02:54:53;;;;;;;18.23;11.60;;;;;;;;;;5066899;28;20024;-55
2021/12/18 02:57:19;;;;;;;17.80;11.15;;;;;;;;;;5065916;28;20028;-53
2021/12/18 02:59:47;;;;;;;17.92;10.50;;;;;;;;;;5065319;28;20043;-55
2021/12/18 03:02:14;;;;;;;18.15;11.95;;;;;;;;;;5063227;28;20346;-54
2021/12/18 03:04:43;;;;;;;16.95;10.95;;;;;;;;;;5061043;28;20059;-55
2021/12/18 03:07:12;;;;;;;18.25;10.95;;;;;;;;;;5065680;28;20598;-54
2021/12/18 03:25:57;;;;;;;19.52;12.15;;;;;;;;;;5064810;28;19918;-55
2021/12/18 03:28:23;;;;;;;21.63;12.57;;;;;;;;;;5065733;28;20066;-55
2021/12/18 03:30:49;;;;;;;21.33;12.23;;;;;;;;;;5046924;28;20099;-55
2021/12/18 03:33:15;;;;;;;20.00;12.55;;;;;;;;;;5065133;28;20032;-53
2021/12/18 03:35:41;;;;;;;19.52;12.35;;;;;;;;;;5064283;28;20564;-55
2021/12/18 03:38:09;;;;;;;21.65;12.75;;;;;;;;;;5046930;28;20423;-54
2021/12/18 03:40:35;;;;;;;20.00;12.48;;;;;;;;;;5065819;28;20389;-55
2021/12/18 03:43:01;;;;;;;21.98;13.43;;;;;;;;;;5064985;28;20494;-55
2021/12/18 03:45:27;;;;;;;19.90;12.27;;;;;;;;;;5064151;28;20055;-55
2021/12/18 03:47:54;;;;;;;19.52;12.15;;;;;;;;;;5065369;28;20075;-54
2021/12/18 03:50:20;;;;;;;19.30;12.05;;;;;;;;;;5064609;28;20154;-54
2021/12/18 03:52:46;;;;;;;17.35;11.25;;;;;;;;;;5065554;28;20059;-55
2021/12/18 03:55:13;;;;;;;18.92;11.93;;;;;;;;;;5064082;28;20024;-54
2021/12/18 03:57:39;;;;;;;21.88;13.07;;;;;;;;;;5063421;28;20064;-54
2021/12/18 04:00:07;;;;;;;18.13;12.35;;;;;;;;;;5064957;28;20103;-54
2021/12/18 04:02:34;;;;;;;18.52;12.30;;;;;;;;;;5064235;28;20111;-54
2021/12/18 04:05:01;;;;;;;19.75;12.35;;;;;;;;;;5063023;28;20032;-55
2021/12/18 04:07:27;;;;;;;23.15;14.13;;;;;;;;;;5065468;28;20051;-53
2021/12/18 04:09:54;;;;;;;19.38;12.35;;;;;;;;;;5065767;28;20403;-54
2021/12/18 04:12:20;;;;;;;20.98;13.38;;;;;;;;;;5065076;28;20021;-53
2021/12/18 04:14:47;;;;;;;20.60;12.52;;;;;;;;;;5063359;28;20020;-55
2021/12/18 04:17:14;;;;;;;21.35;12.82;;;;;;;;;;5064908;28;20029;-55
2021/12/18 04:19:40;;;;;;;19.73;12.70;;;;;;;;;;5064456;28;20043;-54
2021/12/18 04:22:06;;;;;;;22.05;12.93;;;;;;;;;;5064019;28;20559;-55
2021/12/18 04:24:33;;;;;;;18.83;12.30;;;;;;;;;;5065034;28;20063;-53
2021/12/18 04:26:59;;;;;;;22.13;13.70;;;;;;;;;;5064771;28;20032;-55
2021/12/18 04:29:25;;;;;;;23.73;13.65;;;;;;;;;;5065060;28;20027;-55
2021/12/18 04:31:52;;;;;;;19.75;12.60;;;;;;;;;;5063093;28;20033;-55
2021/12/18 04:34:18;;;;;;;23.13;13.95;;;;;;;;;;5064335;28;20025;-55
2021/12/18 04:36:45;;;;;;;20.58;12.70;;;;;;;;;;5064761;28;20021;-54
2021/12/18 04:39:11;;;;;;;21.17;12.85;;;;;;;;;;5064211;28;20047;-54
2021/12/18 04:41:47;;;;;;;21.13;13.23;;;;;;;;;;5062942;28;20033;-54
2021/12/18 04:44:13;;;;;;;24.27;14.05;;;;;;;;;;5064364;28;20086;-53
2021/12/18 04:46:40;;;;;;;23.40;13.90;;;;;;;;;;5062815;28;20036;-56
2021/12/18 04:49:07;;;;;;;22.25;13.55;;;;;;;;;;5063735;28;20025;-55
2021/12/18 04:51:33;;;;;;;26.83;15.13;;;;;;;;;;5063949;28;20210;-55
2021/12/18 04:54:00;;;;;;;25.90;15.43;;;;;;;;;;5063556;28;20028;-55
2021/12/18 04:56:26;;;;;;;25.02;15.02;;;;;;;;;;5064872;28;20032;-55
2021/12/18 04:58:52;;;;;;;26.65;15.52;;;;;;;;;;5065104;28;20078;-54
2021/12/18 05:01:18;;;;;;;34.08;17.33;;;;;;;;;;5068080;28;20033;-55
2021/12/18 05:03:45;;;;;;;29.77;16.58;;;;;;;;;;5068420;28;20059;-55
2021/12/18 05:06:11;;;;;;;26.23;15.52;;;;;;;;;;5066301;28;20036;-54
2021/12/18 05:08:37;;;;;;;27.27;15.48;;;;;;;;;;5068726;28;20025;-54
2021/12/18 05:11:03;;;;;;;24.98;14.02;;;;;;;;;;5068289;28;20458;-54
2021/12/18 05:13:29;;;;;;;26.63;15.25;;;;;;;;;;5050612;28;20146;-54
2021/12/18 05:15:56;;;;;;;23.13;13.45;;;;;;;;;;5067140;28;20554;-55
2021/12/18 05:18:22;;;;;;;22.75;13.38;;;;;;;;;;5067525;28;20172;-56
2021/12/18 05:20:48;;;;;;;26.95;14.63;;;;;;;;;;5068226;28;20533;-55
2021/12/18 05:23:14;;;;;;;25.58;14.40;;;;;;;;;;5067891;28;20034;-54
2021/12/18 05:25:41;;;;;;;24.48;14.98;;;;;;;;;;5067210;28;20071;-55
2021/12/18 05:28:07;;;;;;;26.75;16.05;;;;;;;;;;5067928;28;20029;-54
2021/12/18 05:30:33;;;;;;;25.00;14.85;;;;;;;;;;5066233;28;20028;-54
2021/12/18 05:33:00;;;;;;;23.45;13.90;;;;;;;;;;5067715;28;20105;-54
2021/12/18 05:35:26;;;;;;;25.90;14.82;;;;;;;;;;5068730;28;20081;-55
2021/12/18 05:37:54;;;;;;;23.20;14.15;;;;;;;;;;5049685;28;20047;-55
2021/12/18 05:40:22;;;;;;;24.15;14.15;;;;;;;;;;5067523;28;20032;-54
2021/12/18 05:42:49;;;;;;;26.23;15.48;;;;;;;;;;5067778;28;20036;-55
2021/12/18 05:45:15;;;;;;;25.73;14.57;;;;;;;;;;5067399;28;20518;-52
2021/12/18 05:47:45;;;;;;;24.30;14.13;;;;;;;;;;5066263;28;20324;-55
2021/12/18 05:50:13;;;;;;;24.92;14.52;;;;;;;;;;5067395;28;20555;-55
2021/12/18 05:52:40;;;;;;;25.33;14.20;;;;;;;;;;5067548;28;20197;-54
2021/12/18 05:55:06;;;;;;;26.00;14.63;;;;;;;;;;5067361;28;20020;-55
2021/12/18 05:57:32;;;;;;;23.83;13.52;;;;;;;;;;5066635;28;20036;-55
2021/12/18 05:59:58;;;;;;;23.70;13.35;;;;;;;;;;5067354;28;20028;-52
2021/12/18 06:02:25;;;;;;;26.30;14.60;;;;;;;;;;5066751;28;20039;-54
2021/12/18 06:04:51;;;;;;;25.15;13.75;;;;;;;;;;5066963;28;20028;-55
2021/12/18 06:07:43;;;;;;;24.58;13.48;;;;;;;;;;5066773;28;20032;-53
2021/12/18 06:10:09;;;;;;;27.05;14.70;;;;;;;;;;5066630;28;20046;-55
2021/12/18 06:12:36;;;;;;;25.40;14.38;;;;;;;;;;5066449;28;20059;-54
2021/12/18 06:15:02;;;;;;;25.27;13.63;;;;;;;;;;5066855;28;20395;-55
2021/12/18 06:17:28;;;;;;;28.60;15.25;;;;;;;;;;5067026;28;20044;-55
2021/12/18 06:19:55;;;;;;;26.35;14.75;;;;;;;;;;5065915;28;20017;-55
2021/12/18 06:22:21;;;;;;;28.48;14.25;;;;;;;;;;5067449;28;20517;-55
2021/12/18 06:24:47;;;;;;;23.50;14.13;;;;;;;;;;5067131;28;20051;-55
2021/12/18 06:27:13;;;;;;;24.15;13.00;;;;;;;;;;5066630;28;20491;-55
2021/12/18 06:29:41;;;;;;;22.15;12.77;;;;;;;;;;5065546;28;20117;-55
2021/12/18 06:32:08;;;;;;;24.08;13.30;;;;;;;;;;5065943;28;20028;-55
2021/12/18 06:34:34;;;;;;;23.17;12.75;;;;;;;;;;5066038;28;20020;-55
2021/12/18 06:37:00;;;;;;;23.70;12.93;;;;;;;;;;5065874;28;20175;-54
2021/12/18 06:39:27;;;;;;;24.13;13.23;;;;;;;;;;5065429;28;20036;-55
2021/12/18 06:41:53;;;;;;;20.58;11.70;;;;;;;;;;5067447;28;20036;-54
2021/12/18 06:44:19;;;;;;;24.17;13.63;;;;;;;;;;5065457;28;20377;-54
2021/12/18 06:46:45;;;;;;;23.70;13.40;;;;;;;;;;5066327;28;20039;-55
2021/12/18 06:49:11;;;;;;;22.88;13.25;;;;;;;;;;5066143;28;20440;-55
2021/12/18 06:51:38;;;;;;;23.20;13.43;;;;;;;;;;5066636;28;20031;-55
2021/12/18 06:54:04;;;;;;;27.83;13.73;;;;;;;;;;5064962;28;20032;-55
2021/12/18 06:56:31;;;;;;;23.52;13.40;;;;;;;;;;5066400;28;20024;-54
2021/12/18 06:58:58;;;;;;;23.23;13.07;;;;;;;;;;5066388;28;20107;-55
2021/12/18 07:01:24;;;;;;;21.95;12.65;;;;;;;;;;5063773;28;20078;-54
2021/12/18 07:03:50;;;;;;;23.95;13.27;;;;;;;;;;5066071;28;20410;-54
2021/12/18 07:06:16;;;;;;;25.67;13.15;;;;;;;;;;5065217;28;20478;-54
2021/12/18 07:08:42;;;;;;;25.40;14.15;;;;;;;;;;5067836;28;20767;-54
2021/12/18 07:11:08;;;;;;;26.80;14.15;;;;;;;;;;5065709;28;20112;-55
2021/12/18 07:13:34;;;;;;;27.00;14.57;;;;;;;;;;5066893;28;20021;-55
2021/12/18 07:16:01;;;;;;;24.55;14.48;;;;;;;;;;5063544;28;20535;-54
2021/12/18 07:18:27;;;;;;;27.15;14.32;;;;;;;;;;5073148;28;20039;-54
2021/12/18 07:20:53;;;;;;;26.20;13.90;;;;;;;;;;5079784;28;20488;-51
2021/12/18 07:23:19;;;;;;;25.83;14.43;;;;;;;;;;5054185;28;20823;-55
2021/12/18 07:25:45;;;;;;;26.80;15.13;;;;;;;;;;5063819;28;20090;-54
2021/12/18 07:28:11;;;;;;;25.70;15.32;;;;;;;;;;5067140;28;20021;-54
2021/12/18 07:30:38;;;;;;;25.48;13.98;;;;;;;;;;5063454;28;20131;-53
2021/12/18 07:33:10;;;;;;;24.80;14.07;;;;;;;;;;5060906;28;20039;-53
2021/12/18 07:35:36;;;;;;;25.10;14.25;;;;;;;;;;5065780;28;20486;-55
2021/12/18 07:38:02;;;;;;;25.08;14.40;;;;;;;;;;5066364;28;20013;-55
2021/12/18 07:40:28;;;;;;;27.15;14.75;;;;;;;;;;5066634;28;20036;-55
2021/12/18 07:42:54;;;;;;;24.88;14.82;;;;;;;;;;5067703;28;20546;-55
2021/12/18 07:45:21;;;;;;;26.20;13.85;;;;;;;;;;5066553;28;20056;-55
2021/12/18 07:47:48;;;;;;;24.27;13.65;;;;;;;;;;5064830;28;20032;-54
2021/12/18 07:50:18;;;;;;;23.45;13.68;;;;;;;;;;5066670;28;20029;-55
2021/12/18 07:52:48;;;;;;;25.30;13.65;;;;;;;;;;5065981;28;20052;-55
2021/12/18 07:55:15;;;;;;;22.98;13.52;;;;;;;;;;5048357;28;20025;-55
2021/12/18 07:57:41;;;;;;;22.48;12.80;;;;;;;;;;5066006;28;20035;-54
2021/12/18 08:00:08;;;;;;;23.05;13.10;;;;;;;;;;5066079;28;20028;-55
2021/12/18 08:02:34;;;;;;;19.52;11.90;;;;;;;;;;5066091;28;20591;-56
2021/12/18 08:05:01;;;;;;;20.42;12.40;;;;;;;;;;5048940;28;20032;-56
2021/12/18 08:07:27;;;;;;;20.65;12.13;;;;;;;;;;5066385;28;20024;-55
2021/12/18 08:09:54;;;;;;;18.02;11.25;;;;;;;;;;5066609;28;20040;-55
2021/12/18 08:12:20;;;;;;;17.20;9.98;;;;;;;;;;5066156;28;20583;-55
2021/12/18 08:14:47;;;;;;;15.50;9.63;;;;;;;;;;5064442;28;20032;-55
2021/12/18 08:17:14;;;;;;;15.40;8.82;;;;;;;;;;5064288;28;20029;-53
2021/12/18 08:19:40;;;;;;;13.38;7.78;;;;;;;;;;5064629;28;20059;-55
2021/12/18 08:22:06;;;;;;;12.80;7.85;;;;;;;;;;5065517;28;20032;-55
2021/12/18 08:24:33;;;;;;;12.15;7.28;;;;;;;;;;5065531;28;20028;-56
2021/12/18 08:27:00;;;;;;;11.13;7.05;;;;;;;;;;5058099;28;20032;-55
2021/12/18 08:29:26;;;;;;;10.13;6.18;;;;;;;;;;5064488;28;20454;-55
2021/12/18 08:31:52;;;;;;;10.90;6.38;;;;;;;;;;5060285;28;20024;-54
2021/12/18 08:34:22;;;;;;;10.88;6.45;;;;;;;;;;5062799;28;20036;-54
2021/12/18 08:36:48;;;;;;;10.32;6.22;;;;;;;;;;5057942;28;20037;-55
2021/12/18 08:39:14;;;;;;;14.55;8.20;;;;;;;;;;5065702;28;20046;-55
2021/12/18 08:41:42;;;;;;;15.93;7.22;;;;;;;;;;5065566;28;20390;-54
2021/12/18 08:44:08;;;;;;;22.20;9.32;;;;;;;;;;5062909;28;20124;-55
2021/12/18 08:46:35;;;;;;;22.08;9.57;;;;;;;;;;5051101;28;20037;-55
2021/12/18 08:49:01;;;;;;;16.77;8.30;;;;;;;;;;5065068;28;20021;-56
2021/12/18 08:51:27;;;;;;;20.33;8.45;;;;;;;;;;5066600;28;20024;-55
2021/12/18 08:53:53;;;;;;;19.27;8.38;;;;;;;;;;5063224;28;20190;-56
2021/12/18 08:56:19;;;;;;;19.25;8.65;;;;;;;;;;5065531;28;20106;-55
2021/12/18 08:58:46;;;;;;;18.98;8.07;;;;;;;;;;5065217;28;20036;-55
2021/12/18 09:01:12;;;;;;;14.77;7.13;;;;;;;;;;5063734;28;20024;-55
2021/12/18 09:03:38;;;;;;;12.57;5.80;;;;;;;;;;5064531;28;20040;-55
2021/12/18 09:06:05;;;;;;;14.75;6.60;;;;;;;;;;5063820;28;20028;-55
2021/12/18 09:08:32;;;;;;;15.13;7.30;;;;;;;;;;5064815;28;20042;-56
2021/12/18 09:10:58;;;;;;;14.55;7.05;;;;;;;;;;5064626;28;20104;-55
2021/12/18 09:13:25;;;;;;;12.18;6.45;;;;;;;;;;5064058;28;20099;-55
2021/12/18 09:15:51;;;;;;;14.10;6.43;;;;;;;;;;5063900;28;20021;-55
2021/12/18 09:18:17;;;;;;;14.95;6.75;;;;;;;;;;5063874;28;20034;-55
2021/12/18 09:20:44;;;;;;;11.07;6.20;;;;;;;;;;5064042;28;20066;-55
2021/12/18 09:23:13;;;;;;;10.73;6.28;;;;;;;;;;5063766;28;20094;-56
2021/12/18 09:25:39;;;;;;;9.48;5.20;;;;;;;;;;5063750;28;20457;-54
2021/12/18 09:28:05;;;;;;;12.93;6.00;;;;;;;;;;5063762;28;20122;-55
2021/12/18 09:30:31;;;;;;;12.18;6.10;;;;;;;;;;5063852;28;20086;-55
2021/12/18 09:32:59;;;;;;;12.23;6.32;;;;;;;;;;5064429;28;20028;-56
2021/12/18 09:35:26;;;;;;;17.02;9.45;;;;;;;;;;5064037;28;20016;-56
2021/12/18 09:37:52;;;;;;;25.75;14.68;;;;;;;;;;5063913;28;20384;-55
2021/12/18 09:40:19;;;;;;;37.63;19.20;;;;;;;;;;5063493;28;20042;-55
2021/12/18 09:42:46;;;;;;;36.90;18.00;;;;;;;;;;5063905;28;20104;-53
2021/12/18 09:45:12;;;;;;;26.85;14.48;;;;;;;;;;5063036;28;20095;-55
2021/12/18 09:47:39;;;;;;;24.23;12.35;;;;;;;;;;5067619;28;20067;-55
2021/12/18 09:50:05;;;;;;;19.90;10.50;;;;;;;;;;5066248;28;20102;-56
2021/12/18 09:52:33;;;;;;;18.35;10.15;;;;;;;;;;5067457;28;20074;-56
2021/12/18 09:54:59;;;;;;;14.18;9.00;;;;;;;;;;5066615;28;20029;-56
2021/12/18 09:57:26;;;;;;;13.77;8.38;;;;;;;;;;5067184;28;20031;-54
2021/12/18 09:59:53;;;;;;;14.20;7.72;;;;;;;;;;5062678;28;20058;-55
2021/12/18 10:02:19;;;;;;;16.00;8.20;;;;;;;;;;5065900;28;20446;-55
2021/12/18 10:04:45;;;;;;;15.18;9.35;;;;;;;;;;5069584;28;20063;-56
2021/12/18 10:07:19;;;;;;;15.48;9.18;;;;;;;;;;5066471;28;20103;-56
2021/12/18 10:09:46;;;;;;;17.48;10.55;;;;;;;;;;5067586;28;20400;-56
2021/12/18 10:12:31;;;;;;;18.40;10.38;;;;;;;;;;5089162;28;20021;-56
2021/12/18 10:14:59;;;;;;;17.73;11.02;;;;;;;;;;5078594;28;20032;-57
2021/12/18 10:17:26;;;;;;;17.13;10.27;;;;;;;;;;5048832;28;20029;-56
2021/12/18 10:19:53;;;;;;;14.40;8.85;;;;;;;;;;5079791;28;20108;-56
2021/12/18 10:22:19;;;;;;;16.98;10.35;;;;;;;;;;5082903;28;20055;-56
2021/12/18 10:24:46;;;;;;;17.85;10.82;;;;;;;;;;5066461;28;20115;-56
2021/12/18 10:27:30;;;;;;;16.58;10.20;;;;;;;;;;5067420;28;20436;-55
2021/12/18 10:30:09;;;;;;;16.92;10.55;;;;;;;;;;5066140;28;20029;-54
2021/12/18 10:32:35;;;;;;;13.55;8.90;;;;;;;;;;5064841;28;20028;-55
2021/12/18 10:35:01;;;;;;;17.08;9.43;;;;;;;;;;5066605;28;20028;-55
2021/12/18 10:37:31;;;;;;;14.45;8.93;;;;;;;;;;5066737;28;20029;-56
2021/12/18 10:40:06;;;;;;;12.02;7.82;;;;;;;;;;5065513;28;20044;-55
2021/12/18 10:42:39;;;;;;;12.80;7.63;;;;;;;;;;5066747;28;20427;-55
2021/12/18 10:45:10;;;;;;;12.35;7.28;;;;;;;;;;5065995;28;20052;-55
2021/12/18 10:47:43;;;;;;;10.95;7.10;;;;;;;;;;5066676;28;20037;-55
2021/12/18 10:50:19;;;;;;;12.85;8.07;;;;;;;;;;5060233;28;20047;-55
2021/12/18 10:52:45;;;;;;;11.10;6.97;;;;;;;;;;5051271;28;20151;-55
2021/12/18 10:55:11;;;;;;;11.63;6.57;;;;;;;;;;5064900;28;20107;-55
2021/12/18 10:57:43;;;;;;;12.80;7.13;;;;;;;;;;5065100;28;20031;-55
2021/12/18 11:00:09;;;;;;;10.50;6.55;;;;;;;;;;5065427;28;20127;-55
2021/12/18 11:02:41;;;;;;;11.50;7.03;;;;;;;;;;5066247;28;20040;-56
2021/12/18 11:05:14;;;;;;;14.35;7.40;;;;;;;;;;5065847;28;20024;-54
2021/12/18 11:07:43;;;;;;;12.00;7.60;;;;;;;;;;5065730;28;20028;-56
2021/12/18 11:16:05;;;;;;;14.43;8.43;;;;;;;;;;5065700;28;20079;-54
2021/12/18 11:18:32;;;;;;;12.73;7.82;;;;;;;;;;5065790;28;20024;-54
2021/12/18 11:20:58;;;;;;;10.23;6.68;;;;;;;;;;5065613;28;20066;-55
2021/12/18 11:23:34;;;;;;;11.02;7.13;;;;;;;;;;5063837;28;20498;-56
2021/12/18 11:26:00;;;;;;;14.50;8.45;;;;;;;;;;5064499;28;20033;-55
2021/12/18 11:28:27;;;;;;;15.15;8.88;;;;;;;;;;5060036;28;20709;-55
2021/12/18 11:30:53;;;;;;;15.57;9.05;;;;;;;;;;5046554;28;20052;-55
2021/12/18 11:33:20;;;;;;;15.35;8.98;;;;;;;;;;5047016;28;20094;-56
2021/12/18 11:35:47;;;;;;;17.85;9.82;;;;;;;;;;5047076;28;20031;-55
2021/12/18 11:38:14;;;;;;;17.25;9.52;;;;;;;;;;5047657;28;20036;-55
2021/12/18 11:40:40;;;;;;;17.65;8.90;;;;;;;;;;5047136;28;20096;-55
2021/12/18 11:43:26;;;;;;;15.00;8.57;;;;;;;;;;5052420;28;20036;-55
2021/12/18 11:45:52;;;;;;;14.68;8.27;;;;;;;;;;5065736;28;20028;-55
2021/12/18 11:48:18;;;;;;;15.57;9.43;;;;;;;;;;5066109;28;20495;-56
2021/12/18 11:50:47;;;;;;;13.48;8.18;;;;;;;;;;5067092;28;20648;-55
2021/12/18 11:53:13;;;;;;;13.70;8.30;;;;;;;;;;5067132;28;20037;-54
2021/12/18 11:55:51;;;;;;;13.77;8.73;;;;;;;;;;5066507;28;20099;-54
2021/12/18 11:58:19;;;;;;;11.50;7.30;;;;;;;;;;5066164;28;20043;-55
2021/12/18 12:00:45;;;;;;;11.23;7.40;;;;;;;;;;5067186;28;20400;-55
2021/12/18 12:03:13;;;;;;;12.63;7.93;;;;;;;;;;5065260;28;20060;-55
2021/12/18 12:05:46;;;;;;;12.63;8.25;;;;;;;;;;5062406;28;20052;-55
2021/12/18 12:08:20;;;;;;;11.10;7.97;;;;;;;;;;5065419;28;20052;-54
2021/12/18 12:11:04;;;;;;;13.07;8.30;;;;;;;;;;5066702;28;20036;-56
2021/12/18 12:13:56;;;;;;;12.05;7.70;;;;;;;;;;5064712;28;20060;-55
2021/12/18 12:16:41;;;;;;;12.02;7.50;;;;;;;;;;5037680;28;20048;-56
2021/12/18 12:19:07;;;;;;;11.90;7.70;;;;;;;;;;5065430;28;20495;-56
2021/12/18 12:21:39;;;;;;;10.57;7.43;;;;;;;;;;5066680;28;20050;-56
2021/12/18 12:24:06;;;;;;;10.18;6.75;;;;;;;;;;5066384;28;20024;-55
2021/12/18 12:26:32;;;;;;;13.00;8.32;;;;;;;;;;5065213;28;20115;-56
2021/12/18 12:28:58;;;;;;;9.68;6.90;;;;;;;;;;5065212;28;20029;-54
2021/12/18 12:31:24;;;;;;;10.27;6.70;;;;;;;;;;5066236;28;20365;-56
2021/12/18 12:33:51;;;;;;;11.20;7.53;;;;;;;;;;5066536;28;20028;-54
2021/12/18 12:36:24;;;;;;;11.65;7.63;;;;;;;;;;5063987;28;20032;-56
2021/12/18 12:39:02;;;;;;;9.35;6.47;;;;;;;;;;5066335;28;20047;-56
2021/12/18 12:41:28;;;;;;;9.48;6.60;;;;;;;;;;5063234;28;20045;-56
2021/12/18 12:43:59;;;;;;;13.50;7.90;;;;;;;;;;5064932;28;20422;-55
2021/12/18 12:46:25;;;;;;;11.30;7.35;;;;;;;;;;5064598;28;20036;-56
2021/12/18 12:49:12;;;;;;;14.85;9.10;;;;;;;;;;5061973;28;20032;-55
2021/12/18 12:51:56;;;;;;;13.50;8.75;;;;;;;;;;5066752;28;20040;-55
2021/12/18 12:54:41;;;;;;;13.52;8.25;;;;;;;;;;5066150;28;20106;-56
2021/12/18 12:57:27;;;;;;;12.63;8.20;;;;;;;;;;5064089;28;20033;-56
2021/12/18 12:59:53;;;;;;;13.55;8.52;;;;;;;;;;5065061;28;20052;-54
2021/12/18 13:02:20;;;;;;;13.98;8.57;;;;;;;;;;5065726;28;20036;-56
2021/12/18 13:04:46;;;;;;;14.88;8.40;;;;;;;;;;5066535;28;20028;-56
2021/12/18 13:07:13;;;;;;;13.63;8.95;;;;;;;;;;5063637;28;20063;-56
2021/12/18 13:09:46;;;;;;;13.07;8.57;;;;;;;;;;5066589;28;20078;-55
2021/12/18 13:12:12;;;;;;;14.45;8.98;;;;;;;;;;5066584;28;20039;-55
2021/12/18 13:14:39;;;;;;;12.52;8.35;;;;;;;;;;5063375;28;20111;-55
2021/12/18 13:17:22;;;;;;;12.60;7.90;;;;;;;;;;5062065;28;20047;-55
2021/12/18 13:19:55;;;;;;;11.70;7.55;;;;;;;;;;5064919;28;20028;-55
2021/12/18 13:22:24;;;;;;;13.15;8.10;;;;;;;;;;5053913;28;20086;-56
2021/12/18 13:25:07;;;;;;;12.73;8.23;;;;;;;;;;5063961;28;20040;-56
2021/12/18 13:27:33;;;;;;;15.32;8.52;;;;;;;;;;5069857;28;20056;-55
2021/12/18 13:30:16;;;;;;;13.13;8.32;;;;;;;;;;5067800;28;20024;-56
2021/12/18 13:33:01;;;;;;;12.45;8.13;;;;;;;;;;5066372;28;20020;-55
2021/12/18 13:35:29;;;;;;;13.93;8.65;;;;;;;;;;5078227;28;20028;-56
2021/12/18 13:37:58;;;;;;;13.10;8.82;;;;;;;;;;5090162;28;20073;-56
2021/12/18 13:40:24;;;;;;;13.95;8.57;;;;;;;;;;5070494;28;20510;-56
2021/12/18 13:43:11;;;;;;;12.38;8.40;;;;;;;;;;5068354;28;20032;-56
2021/12/18 13:45:56;;;;;;;12.25;8.40;;;;;;;;;;5064702;28;20103;-56
2021/12/18 13:48:24;;;;;;;13.60;8.82;;;;;;;;;;5060727;28;20040;-55
2021/12/18 13:50:58;;;;;;;14.73;9.65;;;;;;;;;;5048310;28;20515;-57
2021/12/18 13:53:24;;;;;;;12.85;8.68;;;;;;;;;;5066497;28;20129;-54
2021/12/18 13:55:55;;;;;;;13.10;8.57;;;;;;;;;;5068165;28;20428;-57
2021/12/18 13:58:22;;;;;;;13.10;8.93;;;;;;;;;;5067464;28;20036;-56
2021/12/18 14:00:49;;;;;;;13.60;9.18;;;;;;;;;;5067511;28;20049;-56
2021/12/18 14:03:29;;;;;;;14.50;9.45;;;;;;;;;;5068818;28;20052;-55
2021/12/18 14:05:56;;;;;;;12.85;8.85;;;;;;;;;;5065851;28;20043;-55
2021/12/18 14:08:22;;;;;;;13.80;9.32;;;;;;;;;;5068010;28;20089;-55
2021/12/18 14:10:49;;;;;;;12.90;8.73;;;;;;;;;;5067622;28;20756;-56
2021/12/18 14:13:15;;;;;;;13.55;8.52;;;;;;;;;;5077759;28;20032;-56
2021/12/18 14:15:41;;;;;;;15.10;9.20;;;;;;;;;;5076686;28;20033;-55
2021/12/18 14:18:26;;;;;;;13.02;8.07;;;;;;;;;;5068925;28;20048;-55
2021/12/18 14:20:52;;;;;;;14.70;9.52;;;;;;;;;;5064520;28;20032;-56
2021/12/18 14:23:18;;;;;;;12.20;8.32;;;;;;;;;;5064033;28;20539;-56
2021/12/18 14:25:44;;;;;;;11.85;7.90;;;;;;;;;;5087171;28;20035;-55
2021/12/18 14:28:19;;;;;;;12.77;8.52;;;;;;;;;;5082891;28;20100;-54
2021/12/18 14:30:46;;;;;;;15.13;8.15;;;;;;;;;;5066688;28;20488;-55
2021/12/18 14:33:17;;;;;;;13.13;7.93;;;;;;;;;;5066450;28;20025;-54
2021/12/18 14:35:49;;;;;;;13.00;8.85;;;;;;;;;;5068679;28;20074;-54
2021/12/18 14:38:16;;;;;;;11.98;8.30;;;;;;;;;;5029134;28;1108498;-54
2021/12/18 14:40:42;;;;;;;16.42;10.35;;;;;;;;;;5067885;28;20028;-54
2021/12/18 14:43:15;;;;;;;17.17;10.82;;;;;;;;;;5068222;28;20029;-55
2021/12/18 14:45:42;;;;;;;17.23;10.93;;;;;;;;;;5068948;28;20024;-55
2021/12/18 14:48:08;;;;;;;16.33;10.85;;;;;;;;;;5050247;28;20740;-55
2021/12/18 14:50:38;;;;;;;17.02;10.85;;;;;;;;;;5068639;28;20058;-55
2021/12/18 14:53:07;;;;;;;17.05;11.05;;;;;;;;;;5068417;28;20023;-55
2021/12/18 14:55:36;;;;;;;16.00;10.20;;;;;;;;;;5068305;28;20492;-55
2021/12/18 14:58:05;;;;;;;14.10;9.25;;;;;;;;;;5067084;28;20040;-55
2021/12/18 15:00:31;;;;;;;14.13;9.25;;;;;;;;;;5086835;28;20918;-55
2021/12/18 15:03:03;;;;;;;14.25;9.63;;;;;;;;;;5065917;28;20051;-55
2021/12/18 15:05:44;;;;;;;15.27;9.65;;;;;;;;;;5067539;28;20032;-55
2021/12/18 15:08:16;;;;;;;15.85;10.07;;;;;;;;;;5067484;28;20387;-55
2021/12/18 15:10:51;;;;;;;13.55;8.35;;;;;;;;;;5067848;28;20698;-54
2021/12/18 15:13:18;;;;;;;13.45;9.60;;;;;;;;;;5067974;28;20036;-54
2021/12/18 15:15:45;;;;;;;12.68;9.07;;;;;;;;;;5068169;28;20421;-54
2021/12/18 15:18:12;;;;;;;14.77;9.45;;;;;;;;;;5067481;28;20063;-55
2021/12/18 15:20:38;;;;;;;14.50;9.38;;;;;;;;;;5067266;28;20033;-55
2021/12/18 15:23:04;;;;;;;14.02;8.77;;;;;;;;;;5067072;28;20028;-55
2021/12/18 15:25:30;;;;;;;16.88;10.35;;;;;;;;;;5067514;28;20706;-54